»·PEaware :: WAT234 KHHR-KCMA

WAT234 :: KHHR-KCMA

FLIGHT INFORMATION

Flight Status: Arrived
Operator:
Walker Air Transport
More flights by this operator :: More flights under this callsign
Pilot: Eduardo Elias G. (24838)
Aircraft: CIRRUS SR-22
(SR22)
More flights by this aircraft type
Origin: KHHR Northrop/Hawthorne Mun
United States
Destination: KCMA Camarillo
United States
More flights between these airports :: More routes between these airports
Route: +SMO125 SMO VNY
File this flight plan on PilotEdge
Remarks: Tec route SCTP26
Altitude:
(Current/Filed)
4,000ft
Speed:
(Current/Filed)
150kts
Departed: 12-Aug-20 08:46 PM
Arrived: 12-Aug-20 09:08 PM
Distance/Time
Traveled:
41nm/0:21
Distance/Time
To Go:
Arrived

Flight Plot

Page will automatically refresh every two minutes.

Flight plan parsing failed; only flown route is shown


Map Options




Map Legend


Flown Route
Filed Route
Departure Airport
Arrival Airport
Navaid (VOR, NDB)
Fix

Horizontal Profiles

Position Reports

Time Latitude Longitude Heading Altitude Ground
Speed
12-Aug-20 20:16 33.921972 -118.340186 55 63ft 0kts
12-Aug-20 20:17 33.921972 -118.340186 55 63ft 0kts
12-Aug-20 20:18 33.921972 -118.340186 55 63ft 0kts
12-Aug-20 20:19 33.921972 -118.340186 55 63ft 0kts
12-Aug-20 20:20 33.921972 -118.340186 55 63ft 0kts
12-Aug-20 20:21 33.921972 -118.340186 55 63ft 0kts
12-Aug-20 20:22 33.921972 -118.340186 55 63ft 0kts
12-Aug-20 20:23 33.921972 -118.340186 55 63ft 0kts
12-Aug-20 20:24 33.921972 -118.340186 55 63ft 0kts
12-Aug-20 20:25 33.921972 -118.340186 55 63ft 0kts
12-Aug-20 20:26 33.921972 -118.340186 55 63ft 0kts
12-Aug-20 20:27 33.921972 -118.340186 55 63ft 0kts
12-Aug-20 20:28 33.921972 -118.340186 55 63ft 0kts
12-Aug-20 20:29 33.921972 -118.340186 55 63ft 0kts
12-Aug-20 20:30 33.921972 -118.340186 55 63ft 0kts
12-Aug-20 20:31 33.921972 -118.340186 55 63ft 0kts
12-Aug-20 20:32 33.921972 -118.340186 55 63ft 0kts
12-Aug-20 20:33 33.921972 -118.340186 55 63ft 0kts
12-Aug-20 20:34 33.921972 -118.340186 55 63ft 0kts
12-Aug-20 20:35 33.921972 -118.340186 55 63ft 0kts
12-Aug-20 20:36 33.921972 -118.340186 55 63ft 0kts
12-Aug-20 20:37 33.921972 -118.340186 55 63ft 0kts
12-Aug-20 20:38 33.921972 -118.340186 55 63ft 0kts
12-Aug-20 20:39 33.922147 -118.339950 62 63ft 4kts
12-Aug-20 20:40 33.922375 -118.336227 87 63ft 17kts
12-Aug-20 20:41 33.922647 -118.330025 84 63ft 10kts
12-Aug-20 20:42 33.922791 -118.327256 39 63ft 0kts
12-Aug-20 20:43 33.922791 -118.327256 39 63ft 0kts
12-Aug-20 20:44 33.923224 -118.327278 265 63ft 0kts
12-Aug-20 20:45 33.922344 -118.347323 256 569ft 105kts
12-Aug-20 20:46 33.899116 -118.377494 222 1622ft 128kts
12-Aug-20 20:47 33.869360 -118.395909 150 2763ft 136kts
12-Aug-20 20:48 33.878003 -118.364806 345 3509ft 136kts
12-Aug-20 20:49 33.915108 -118.377182 325 3989ft 148kts
12-Aug-20 20:50 33.950852 -118.407486 322 3982ft 160kts
12-Aug-20 20:51 33.988451 -118.438751 323 3980ft 166kts
12-Aug-20 20:52 34.021907 -118.476673 311 3980ft 166kts
12-Aug-20 20:53 34.054051 -118.516521 311 3989ft 166kts
12-Aug-20 20:54 34.086221 -118.556642 311 3990ft 165kts
12-Aug-20 20:55 34.118086 -118.596604 311 3988ft 165kts
12-Aug-20 20:56 34.150118 -118.636882 312 3987ft 166kts
12-Aug-20 20:57 34.180834 -118.678364 284 3983ft 164kts
12-Aug-20 20:58 34.191585 -118.731487 281 3988ft 162kts
12-Aug-20 20:59 34.202074 -118.785396 281 3990ft 160kts
12-Aug-20 21:00 34.205210 -118.839477 271 3991ft 159kts
12-Aug-20 21:01 34.208577 -118.893256 272 3996ft 161kts
12-Aug-20 21:02 34.211092 -118.949344 273 3305ft 150kts
12-Aug-20 21:03 34.212690 -118.995800 270 1725ft 136kts
12-Aug-20 21:04 34.212992 -119.031931 272 974ft 85kts
12-Aug-20 21:05 34.213445 -119.061536 271 469ft 88kts
12-Aug-20 21:06 34.213710 -119.090901 270 81ft 71kts
12-Aug-20 21:07 34.213352 -119.100870 198 77ft 5kts
12-Aug-20 21:08 34.212922 -119.100901 182 77ft 0kts
12-Aug-20 21:09 34.212921 -119.100901 182 77ft 0kts
12-Aug-20 21:10 34.211893 -119.100235 139 77ft 8kts
12-Aug-20 21:11 34.211041 -119.097605 91 77ft 13kts
12-Aug-20 21:12 34.211000 -119.091939 89 77ft 19kts
12-Aug-20 21:13 34.210935 -119.085111 90 77ft 18kts
12-Aug-20 21:14 34.210886 -119.080712 92 77ft 6kts
12-Aug-20 21:15 34.210661 -119.078754 178 77ft 4kts
12-Aug-20 21:16 34.210503 -119.078435 89 77ft 0kts
12-Aug-20 21:17 34.210503 -119.078435 89 77ft 0kts
12-Aug-20 21:18 34.210503 -119.078435 89 77ft 0kts
12-Aug-20 21:19 34.210503 -119.078435 89 77ft 0kts

Navigation Log

Ident Type
Flight plan parsing failed, navigation log unavailable